Pagina principale
METAR-TAF:

METAR-TAF

Aeroporti :

Aeroporto di Atene-Eleftherios Venizelos

Atene, Grecia

latitudine: 37-56N, longitudine: 023-56E, altezza: 94 m

Osservazione

Il bollettino è stato emesso 15 minuti fa, alle 23:50 UTC
Vento 3 kt da est
Temperature 6°C
Umidità 61%
Pressione 1018 hPa
Visibilità 10 km o più
Poco nuvoloso ad un'altezza di 3000 ft

METAR: LGAV 242350Z 10003KT 9999 FEW030 06/M01 Q1018 NOSIG

Ora: 02:05 (00:05 UTC)

Previsione

Il bollettino è stato emesso 1 ora e 5 minuti fa, alle 23:00 UTC
Previsione valida dal 25 alle 00 UTC al 25 alle 24 UTC
Vento 3 kt da direzioni variabili
Visibilità 10 km o più
Poco nuvoloso ad un'altezza di 3000 ft
Evoluzione graduale
dal 25 alle 06 UTC al 25 alle 08 UTC
Vento 13 kt da nord

TAF: LGAV 242300Z 2500/2524 VRB03KT 9999 FEW030 BECMG 2506/2508 01013KT

Osservazioni e previsioni meteorologiche di più di 4000 aeroporti (messaggi METAR e TAF).

Le stazioni disponibili sono rappresentate dai dischi gialli e rossi sulla carta.

Puntare il mouse per vedere il nome della stazione.

Clicca sopra per visualizzare le osservazioni e previsioni meteorologiche.

Per cambiare la mappa : fare clic sui pulsanti verdi con una croce nera per ingrandire, il pulsante verde con un trattino per diminuire, o sulla freccia verde per le mappe adiacenti.


METAR-TAF: